Time;durP1;ratioP1;P1;durP2;ratioP2;P2;SDS_P1;SDS_P2;PMS_P1;PMS_P2;Temp;Humidity;BMP_temperature;BMP_pressure;BME280_temperature;BME280_humidity;BME280_pressure;Samples;Min_cycle;Max_cycle;Signal;HPM_P1;HPM_P2
2023/05/28 00:00:17;;;;;;;6.80;6.38;;;;;;;12.14;74.74;101329.44;6100799;23;20021;-71
2023/05/28 00:02:44;;;;;;;6.35;5.78;;;;;;;11.92;75.14;101302.47;6120787;23;20019;-70
2023/05/28 00:05:11;;;;;;;6.43;5.93;;;;;;;12.11;76.54;101360.34;6092756;23;20026;-71
2023/05/28 00:07:39;;;;;;;6.00;5.50;;;;;;;12.07;77.06;101367.53;6121198;23;20104;-70
2023/05/28 00:10:06;;;;;;;6.70;6.20;;;;;;;11.65;77.60;101308.09;6094782;23;20108;-69
2023/05/28 00:12:32;;;;;;;5.78;5.35;;;;;;;11.88;78.75;101367.50;6129613;23;20138;-70
2023/05/28 00:14:59;;;;;;;6.10;5.60;;;;;;;11.73;79.48;101360.34;6099315;23;20022;-69
2023/05/28 00:17:26;;;;;;;6.75;5.82;;;;;;;11.70;80.09;101365.72;6118908;23;20381;-70
2023/05/28 00:19:52;;;;;;;6.38;5.78;;;;;;;11.65;80.84;101368.56;6122071;23;20083;-72
2023/05/28 00:22:19;;;;;;;6.45;5.85;;;;;;;11.63;82.09;101380.09;6118908;23;20025;-71
2023/05/28 00:24:46;;;;;;;6.30;5.82;;;;;;;11.53;82.71;101380.50;6126746;23;20023;-70
2023/05/28 00:27:12;;;;;;;5.78;5.47;;;;;;;11.53;83.64;101375.25;6118553;23;20013;-71
2023/05/28 00:29:39;;;;;;;9.63;7.18;;;;;;;11.07;84.06;101303.72;6123246;23;20025;-70
2023/05/28 00:32:06;;;;;;;6.50;6.00;;;;;;;11.14;84.28;101327.94;6124793;23;20021;-71
2023/05/28 00:34:32;;;;;;;6.55;5.95;;;;;;;11.16;84.36;101329.59;6105155;23;20053;-70
2023/05/28 00:36:58;;;;;;;5.95;5.55;;;;;;;11.41;84.14;101373.16;6120629;23;20032;-71
2023/05/28 00:39:25;;;;;;;7.05;6.07;;;;;;;11.30;84.79;101357.00;6093137;23;20024;-71
2023/05/28 00:42:04;;;;;;;6.68;6.18;;;;;;;11.27;84.73;101360.63;6119047;23;20454;-70
2023/05/28 00:44:33;;;;;;;7.90;5.63;;;;;;;11.07;85.63;101339.66;6124662;23;20044;-70
2023/05/28 00:47:00;;;;;;;6.72;6.10;;;;;;;11.13;85.76;101352.53;6121380;23;20029;-70
2023/05/28 00:49:27;;;;;;;6.65;5.82;;;;;;;11.18;86.08;101364.53;6121164;23;20251;-70
2023/05/28 00:51:56;;;;;;;6.57;5.97;;;;;;;11.18;86.49;101369.78;6090862;23;20142;-71
2023/05/28 00:54:25;;;;;;;6.00;5.57;;;;;;;11.12;87.04;101359.53;6120834;23;20593;-69
2023/05/28 00:56:57;;;;;;;6.43;5.97;;;;;;;11.10;87.45;101360.53;6114378;23;20025;-70
2023/05/28 00:59:25;;;;;;;8.48;6.22;;;;;;;11.03;87.52;101359.94;6123365;23;20033;-69
2023/05/28 01:01:52;;;;;;;6.38;5.80;;;;;;;10.98;88.37;101359.28;6115379;23;20041;-71
2023/05/28 01:04:18;;;;;;;7.57;6.28;;;;;;;10.96;88.19;101362.00;6091303;23;20028;-70
2023/05/28 01:06:45;;;;;;;6.22;5.63;;;;;;;10.92;88.72;101355.13;6120290;23;20055;-69
2023/05/28 01:09:12;;;;;;;6.10;5.50;;;;;;;10.44;88.80;101276.72;6080736;23;20049;-69
2023/05/28 01:11:41;;;;;;;5.25;4.95;;;;;;;10.85;89.26;101353.72;6120075;23;20021;-69
2023/05/28 01:14:10;;;;;;;6.28;5.63;;;;;;;10.78;89.35;101345.25;6102170;23;20576;-71
2023/05/28 01:16:39;;;;;;;8.65;5.78;;;;;;;10.71;90.31;101369.19;6120602;23;20029;-70
2023/05/28 01:19:08;;;;;;;6.00;5.60;;;;;;;10.71;90.79;101350.81;6102825;23;20045;-70
2023/05/28 01:21:43;;;;;;;7.68;6.07;;;;;;;10.63;91.20;101356.41;6121309;23;20021;-70
2023/05/28 01:24:14;;;;;;;7.55;6.43;;;;;;;10.45;92.19;101328.31;6075240;23;20028;-70
2023/05/28 01:26:42;;;;;;;9.00;5.43;;;;;;;10.55;92.54;101340.13;6117471;23;20023;-70
2023/05/28 01:29:18;;;;;;;6.38;5.78;;;;;;;10.50;93.20;101348.19;6093332;23;20067;-70
2023/05/28 01:31:48;;;;;;;7.10;6.07;;;;;;;10.46;94.01;101343.94;5966579;23;20014;-71
2023/05/28 01:34:15;;;;;;;6.38;5.78;;;;;;;10.02;94.58;101283.63;6106367;23;20172;-71
2023/05/28 01:36:48;;;;;;;6.30;5.85;;;;;;;10.34;95.54;101344.47;6123624;23;20017;-69
2023/05/28 01:39:19;;;;;;;8.23;5.82;;;;;;;9.91;96.87;101289.31;6122568;23;20509;-69
2023/05/28 01:41:47;;;;;;;8.48;5.75;;;;;;;9.84;97.65;101279.97;6115698;23;20176;-70
2023/05/28 01:44:18;;;;;;;6.07;5.68;;;;;;;10.21;98.17;101340.63;6096016;23;20608;-70
2023/05/28 01:46:49;;;;;;;8.68;5.60;;;;;;;9.94;98.78;101306.69;6127148;23;20373;-70
2023/05/28 01:49:15;;;;;;;6.32;5.82;;;;;;;9.87;99.33;101292.13;6121447;23;20036;-69
2023/05/28 01:51:43;;;;;;;5.93;5.40;;;;;;;9.43;100.00;101237.06;6126345;23;20027;-70
2023/05/28 01:54:10;;;;;;;7.57;5.97;;;;;;;10.06;100.00;101342.06;6093208;23;20092;-69
2023/05/28 01:56:36;;;;;;;6.38;5.70;;;;;;;8.98;100.00;101155.84;6126238;23;20044;-70
2023/05/28 01:59:03;;;;;;;5.47;5.07;;;;;;;10.01;100.00;101337.00;6096325;23;20030;-70
2023/05/28 02:01:32;;;;;;;9.88;5.80;;;;;;;9.78;100.00;101303.81;6128879;23;20559;-69
2023/05/28 02:04:00;;;;;;;6.70;6.10;;;;;;;10.02;100.00;101357.06;6120436;23;20033;-70
2023/05/28 02:06:29;;;;;;;5.93;5.43;;;;;;;9.71;100.00;101303.22;6130871;23;20520;-70
2023/05/28 02:08:56;;;;;;;7.18;5.07;;;;;;;9.96;100.00;101352.94;6112221;23;20431;-70
2023/05/28 02:11:22;;;;;;;6.20;5.70;;;;;;;9.80;100.00;101343.94;6122583;23;20029;-70
2023/05/28 02:13:49;;;;;;;5.88;5.43;;;;;;;9.98;100.00;101360.72;6115095;23;20495;-70
2023/05/28 02:16:17;;;;;;;5.80;5.40;;;;;;;9.51;100.00;101285.63;6079963;23;20029;-70
2023/05/28 02:18:44;;;;;;;5.82;5.35;;;;;;;9.94;100.00;101356.50;6127395;23;20017;-69
2023/05/28 02:21:12;;;;;;;5.75;5.35;;;;;;;9.92;100.00;101356.59;6122771;23;20475;-70
2023/05/28 02:23:43;;;;;;;6.75;5.40;;;;;;;9.91;100.00;101354.88;6127338;23;20098;-69
2023/05/28 02:26:12;;;;;;;7.70;6.40;;;;;;;9.85;100.00;101344.63;6100879;23;20831;-70
2023/05/28 02:28:43;;;;;;;5.72;4.93;;;;;;;9.82;100.00;101341.25;6126106;23;20486;-69
2023/05/28 02:31:10;;;;;;;5.90;5.50;;;;;;;9.08;100.00;101248.00;6111921;23;20030;-68
2023/05/28 02:33:41;;;;;;;6.25;5.72;;;;;;;9.83;100.00;101359.56;6126422;23;20399;-70
2023/05/28 02:36:11;;;;;;;6.78;6.13;;;;;;;9.81;100.00;101366.63;6079644;23;20042;-70
2023/05/28 02:38:42;;;;;;;6.07;5.63;;;;;;;9.33;100.00;101295.03;6124200;23;20021;-69
2023/05/28 02:41:09;;;;;;;5.70;5.20;;;;;;;9.70;100.00;101371.41;6124389;23;20094;-70
2023/05/28 02:43:35;;;;;;;5.75;5.35;;;;;;;9.67;100.00;101368.94;6123496;23;20103;-70
2023/05/28 02:46:02;;;;;;;6.40;5.90;;;;;;;9.66;100.00;101377.69;6081462;23;20030;-70
2023/05/28 02:48:28;;;;;;;6.25;5.70;;;;;;;9.55;100.00;101378.94;6121797;23;20037;-70
2023/05/28 02:50:55;;;;;;;6.00;5.57;;;;;;;9.49;100.00;101387.03;6122884;23;20070;-70
2023/05/28 02:53:22;;;;;;;7.55;6.00;;;;;;;9.45;100.00;101393.28;6129430;23;20028;-70
2023/05/28 02:55:49;;;;;;;5.60;5.20;;;;;;;8.41;100.00;101242.50;6094764;23;20014;-70
2023/05/28 02:58:17;;;;;;;6.47;5.28;;;;;;;9.01;100.00;101340.75;6098535;23;20090;-70
2023/05/28 03:00:43;;;;;;;7.65;6.15;;;;;;;9.21;100.00;101396.81;6123519;23;20017;-70
2023/05/28 03:03:10;;;;;;;7.85;7.18;;;;;;;9.23;100.00;101384.50;6097867;23;20025;-69
2023/05/28 03:05:37;;;;;;;6.80;6.18;;;;;;;8.73;100.00;101310.28;6124608;23;20325;-69
2023/05/28 03:08:04;;;;;;;6.65;6.10;;;;;;;8.92;100.00;101346.28;6091941;23;20034;-69
2023/05/28 03:10:30;;;;;;;5.00;4.53;;;;;;;9.19;100.00;101391.59;6093885;23;20022;-69
2023/05/28 03:12:57;;;;;;;5.53;5.22;;;;;;;8.71;100.00;101311.25;6123046;23;20432;-70
2023/05/28 03:15:26;;;;;;;6.53;5.93;;;;;;;9.17;100.00;101401.28;6126333;23;20503;-69
2023/05/28 03:17:53;;;;;;;5.70;5.38;;;;;;;9.17;100.00;101391.66;6071091;23;20022;-70
2023/05/28 03:20:20;;;;;;;6.35;5.78;;;;;;;9.21;100.00;101404.66;6094146;23;20028;-70
2023/05/28 03:22:49;;;;;;;6.10;5.65;;;;;;;9.24;100.00;101399.28;6092158;23;20717;-70
2023/05/28 03:25:15;;;;;;;6.85;6.15;;;;;;;9.09;100.00;101377.13;6105955;23;20772;-69
2023/05/28 03:27:44;;;;;;;6.40;5.82;;;;;;;9.27;100.00;101409.69;6115377;23;20084;-70
2023/05/28 03:30:11;;;;;;;6.20;5.68;;;;;;;9.31;100.00;101411.28;6122543;23;20576;-69
2023/05/28 03:32:37;;;;;;;22.52;6.00;;;;;;;7.84;100.00;101166.84;6123002;23;20066;-73
2023/05/28 03:35:04;;;;;;;5.75;5.25;;;;;;;9.33;100.00;101414.69;6094592;23;20037;-72
2023/05/28 03:37:33;;;;;;;5.95;5.45;;;;;;;9.33;100.00;101417.31;6119999;23;20049;-72
2023/05/28 03:40:00;;;;;;;6.82;5.78;;;;;;;9.33;100.00;101412.06;6080852;23;20033;-72
2023/05/28 03:42:26;;;;;;;6.03;5.63;;;;;;;9.35;100.00;101416.34;6102783;23;20026;-71
2023/05/28 03:44:52;;;;;;;5.78;5.28;;;;;;;9.37;100.00;101418.91;6120995;23;20037;-72
2023/05/28 03:47:19;;;;;;;6.07;5.47;;;;;;;9.19;100.00;101391.59;6123117;23;20614;-72
2023/05/28 03:49:45;;;;;;;5.57;5.18;;;;;;;9.30;100.00;101401.69;6120586;23;20025;-73
2023/05/28 03:52:11;;;;;;;10.75;6.30;;;;;;;9.41;100.00;101420.50;6092586;23;20021;-72
2023/05/28 03:54:38;;;;;;;8.73;6.38;;;;;;;9.42;100.00;101418.75;6125917;23;20027;-72
2023/05/28 03:57:05;;;;;;;5.32;4.93;;;;;;;9.36;100.00;101412.81;6114755;23;20033;-72
2023/05/28 03:59:32;;;;;;;5.85;5.47;;;;;;;9.50;100.00;101428.06;6109261;23;20658;-72
2023/05/28 04:02:01;;;;;;;5.85;5.45;;;;;;;9.54;100.00;101418.28;6114383;23;20696;-72
2023/05/28 04:04:27;;;;;;;6.35;5.70;;;;;;;9.55;100.00;101422.63;6098711;23;20022;-73
2023/05/28 04:06:53;;;;;;;6.53;6.03;;;;;;;9.21;100.00;101389.78;6096395;23;20047;-72
2023/05/28 04:09:20;;;;;;;7.78;6.32;;;;;;;9.90;100.00;101431.84;6122520;23;20010;-72
2023/05/28 04:11:47;;;;;;;14.05;6.30;;;;;;;10.36;100.00;101439.72;6123140;23;20123;-72
2023/05/28 04:14:13;;;;;;;9.93;6.93;;;;;;;11.00;100.00;101449.38;6092765;23;20048;-72
2023/05/28 04:16:40;;;;;;;7.97;6.28;;;;;;;11.37;100.00;101451.28;6090747;23;20026;-73
2023/05/28 04:19:07;;;;;;;6.88;6.18;;;;;;;11.87;100.00;101438.59;6096537;23;20029;-73
2023/05/28 04:21:33;;;;;;;11.70;6.00;;;;;;;11.56;96.77;101377.72;6122662;23;20017;-72
2023/05/28 04:24:00;;;;;;;7.65;6.10;;;;;;;11.69;94.35;101399.06;6120317;23;20021;-71
2023/05/28 04:26:27;;;;;;;7.70;7.00;;;;;;;11.65;92.83;101388.75;6069792;23;20026;-72
2023/05/28 04:28:53;;;;;;;6.43;5.85;;;;;;;11.81;92.41;101399.41;6111649;23;20021;-73
2023/05/28 04:31:19;;;;;;;6.72;6.13;;;;;;;12.20;91.54;101409.88;6121897;23;20688;-72
2023/05/28 04:33:46;;;;;;;6.85;6.35;;;;;;;12.23;89.81;101403.59;6090716;23;20017;-72
2023/05/28 04:36:16;;;;;;;9.35;6.05;;;;;;;12.26;88.71;101351.69;6090631;23;20021;-72
2023/05/28 04:38:42;;;;;;;6.28;5.85;;;;;;;13.15;86.73;101396.41;6117000;23;20081;-72
2023/05/28 04:41:13;;;;;;;8.32;6.55;;;;;;;13.53;84.03;101351.38;6072793;23;20035;-72
2023/05/28 04:43:41;;;;;;;6.13;5.63;;;;;;;14.15;81.53;101327.69;6122302;23;20564;-72
2023/05/28 04:46:08;;;;;;;6.32;5.82;;;;;;;14.93;78.29;101335.50;6092505;23;20029;-71
2023/05/28 04:48:35;;;;;;;7.95;6.07;;;;;;;15.17;74.13;101290.84;6117057;23;20021;-72
2023/05/28 04:51:03;;;;;;;6.57;6.07;;;;;;;15.55;72.72;101285.81;6105311;23;20039;-73
2023/05/28 04:53:31;;;;;;;9.68;6.68;;;;;;;15.99;71.33;101288.34;6141873;23;20058;-75
2023/05/28 04:55:57;;;;;;;7.53;6.82;;;;;;;16.27;69.93;101216.72;6107570;23;20086;-72
2023/05/28 04:58:23;;;;;;;7.90;6.90;;;;;;;16.95;67.82;101225.31;6121856;23;20628;-73
2023/05/28 05:00:51;;;;;;;7.55;6.85;;;;;;;17.18;66.45;101198.97;6127473;23;20073;-72
2023/05/28 05:03:17;;;;;;;7.70;7.00;;;;;;;17.49;64.61;101155.97;6117782;23;21176;-72
2023/05/28 05:05:43;;;;;;;7.30;6.70;;;;;;;17.52;62.95;101105.34;6103975;23;20539;-72
2023/05/28 05:08:13;;;;;;;8.05;7.35;;;;;;;17.91;62.96;101137.81;6124639;23;20095;-73
2023/05/28 05:10:40;;;;;;;6.72;6.13;;;;;;;18.31;61.97;101112.66;6100825;23;20586;-72
2023/05/28 05:13:06;;;;;;;7.13;6.63;;;;;;;18.67;60.21;101074.31;6120637;23;20034;-73
2023/05/28 05:15:33;;;;;;;7.63;6.70;;;;;;;18.86;59.11;101041.81;6118865;23;20009;-73
2023/05/28 05:17:59;;;;;;;7.85;7.15;;;;;;;18.54;58.24;100946.03;6091128;23;20837;-73
2023/05/28 05:20:27;;;;;;;7.32;6.72;;;;;;;18.97;57.16;100947.00;6125875;23;20016;-72
2023/05/28 05:22:53;;;;;;;8.45;7.55;;;;;;;19.34;56.92;100971.31;6114712;23;20025;-72
2023/05/28 05:25:20;;;;;;;8.10;6.97;;;;;;;18.45;56.38;100795.31;6123550;23;20092;-74
2023/05/28 05:27:50;;;;;;;7.57;6.97;;;;;;;19.24;56.37;100928.69;6118614;23;20010;-73
2023/05/28 05:30:16;;;;;;;7.30;6.80;;;;;;;19.39;56.03;100931.03;6095214;23;20026;-73
2023/05/28 05:32:43;;;;;;;8.45;7.63;;;;;;;19.19;55.73;100858.25;6117457;23;20428;-74
2023/05/28 05:35:09;;;;;;;8.75;7.72;;;;;;;19.35;54.79;100808.03;6096199;23;20018;-72
2023/05/28 05:37:36;;;;;;;8.43;7.03;;;;;;;20.21;54.34;100906.16;6116500;23;20013;-73
2023/05/28 05:40:05;;;;;;;8.48;7.68;;;;;;;20.42;53.71;100855.38;6100950;23;20044;-72
2023/05/28 05:42:31;;;;;;;9.23;7.30;;;;;;;20.38;52.42;100785.50;6117782;23;20455;-72
2023/05/28 05:44:58;;;;;;;7.80;7.10;;;;;;;20.61;52.63;100779.91;6119471;23;20037;-72
2023/05/28 05:47:25;;;;;;;10.95;6.70;;;;;;;20.83;52.06;100790.22;6123440;23;20028;-73
2023/05/28 05:49:51;;;;;;;7.63;6.93;;;;;;;20.54;51.12;100688.94;6117066;23;20388;-73
2023/05/28 05:52:17;;;;;;;7.30;6.70;;;;;;;20.72;51.23;100700.53;6123404;23;20025;-72
2023/05/28 05:54:45;;;;;;;7.00;6.40;;;;;;;21.07;49.62;100663.47;6097500;23;20021;-73
2023/05/28 05:57:11;;;;;;;7.95;7.15;;;;;;;20.80;48.52;100545.13;6117841;23;20021;-73
2023/05/28 05:59:37;;;;;;;7.25;6.70;;;;;;;20.66;47.69;100570.47;6122178;23;20627;-73
2023/05/28 06:02:04;;;;;;;7.32;6.72;;;;;;;21.07;47.14;100607.44;6087656;23;20018;-73
2023/05/28 06:04:33;;;;;;;10.40;7.13;;;;;;;20.96;46.54;100580.97;6123992;23;20020;-72
2023/05/28 06:07:06;;;;;;;8.60;7.07;;;;;;;21.88;46.33;100714.22;6110261;23;20033;-70
2023/05/28 06:09:33;;;;;;;7.82;7.18;;;;;;;22.06;46.15;100697.34;6126260;23;20053;-71
2023/05/28 06:12:01;;;;;;;8.00;6.82;;;;;;;22.21;44.97;100706.50;6117881;23;20060;-71
2023/05/28 06:14:27;;;;;;;6.85;6.35;;;;;;;22.36;46.43;100795.03;6093208;23;20108;-71
2023/05/28 06:16:54;;;;;;;7.80;7.13;;;;;;;21.80;45.58;100702.63;6117898;23;20044;-71
2023/05/28 06:19:22;;;;;;;7.80;7.20;;;;;;;21.89;47.08;100806.75;6122583;23;20597;-73
2023/05/28 06:21:48;;;;;;;7.22;6.65;;;;;;;21.03;47.99;100710.97;6121110;23;20013;-73
2023/05/28 06:24:14;;;;;;;9.85;7.30;;;;;;;20.63;48.73;100789.44;6096372;23;20030;-74
2023/05/28 06:26:41;;;;;;;7.65;6.95;;;;;;;20.17;49.86;100793.66;6124108;23;20457;-73
2023/05/28 06:29:09;;;;;;;7.93;7.22;;;;;;;18.97;51.07;100692.50;6068301;23;20547;-73
2023/05/28 06:31:36;;;;;;;7.82;7.22;;;;;;;19.71;50.97;100832.41;6125672;23;20028;-73
2023/05/28 06:34:02;;;;;;;8.15;7.43;;;;;;;19.38;51.13;100806.91;6092483;23;20589;-73
2023/05/28 06:36:29;;;;;;;7.88;7.15;;;;;;;19.54;50.19;100796.59;6098418;23;20615;-73
2023/05/28 06:38:55;;;;;;;9.25;7.82;;;;;;;19.79;50.17;100837.06;6129577;23;20015;-73
2023/05/28 06:41:22;;;;;;;7.65;7.05;;;;;;;19.37;50.23;100783.94;6117792;23;20022;-73
2023/05/28 06:43:48;;;;;;;7.60;6.95;;;;;;;19.09;50.22;100763.25;6098150;23;20495;-73
2023/05/28 06:46:14;;;;;;;10.50;7.10;;;;;;;19.57;50.19;100840.75;6087680;23;20021;-73
2023/05/28 06:48:41;;;;;;;7.70;7.00;;;;;;;19.23;53.16;100931.50;6124477;23;20021;-73
2023/05/28 06:51:07;;;;;;;7.82;7.15;;;;;;;19.31;52.66;100950.31;6114512;23;20468;-73
2023/05/28 06:53:34;;;;;;;7.30;6.70;;;;;;;18.97;50.83;100820.19;6099493;23;20659;-72
2023/05/28 06:56:00;;;;;;;7.68;6.93;;;;;;;19.31;51.15;100863.34;6117757;23;20026;-73
2023/05/28 06:58:29;;;;;;;7.47;6.75;;;;;;;19.08;50.95;100812.13;6118805;23;20611;-72
2023/05/28 07:00:55;;;;;;;7.25;6.43;;;;;;;20.18;47.24;100783.81;6105485;23;20073;-72
2023/05/28 07:03:22;;;;;;;6.88;6.38;;;;;;;19.83;46.09;100676.03;6099856;23;20027;-72
2023/05/28 07:05:48;;;;;;;8.63;6.75;;;;;;;19.87;44.32;100592.19;6090401;23;20033;-73
2023/05/28 07:08:15;;;;;;;7.60;7.00;;;;;;;20.16;44.38;100668.53;6113921;23;20159;-72
2023/05/28 07:10:41;;;;;;;6.65;6.15;;;;;;;20.05;45.10;100749.47;6120585;23;20013;-72
2023/05/28 07:13:08;;;;;;;7.30;6.80;;;;;;;20.14;46.24;100804.56;6115656;23;20048;-72
2023/05/28 07:15:35;;;;;;;7.47;6.70;;;;;;;20.47;46.16;100877.13;6123206;23;20060;-72
2023/05/28 07:18:05;;;;;;;7.55;6.78;;;;;;;19.83;46.93;100812.69;6119178;23;20613;-73
2023/05/28 07:20:31;;;;;;;6.65;6.15;;;;;;;20.18;45.74;100813.13;6128946;23;20261;-72
2023/05/28 07:22:58;;;;;;;7.90;6.20;;;;;;;20.07;47.15;100841.59;6129675;23;20048;-73
2023/05/28 07:25:24;;;;;;;6.75;6.25;;;;;;;19.84;46.53;100814.34;6122283;23;20019;-73
2023/05/28 07:27:51;;;;;;;6.72;6.18;;;;;;;19.37;46.58;100768.81;6097647;23;20029;-73
2023/05/28 07:30:17;;;;;;;6.78;6.28;;;;;;;19.65;46.99;100876.38;6117608;23;20031;-73
2023/05/28 07:32:44;;;;;;;7.25;6.55;;;;;;;19.69;46.78;100884.94;6119945;23;20568;-72
2023/05/28 07:35:11;;;;;;;10.40;7.10;;;;;;;19.49;47.60;100874.19;6096647;23;20642;-73
2023/05/28 07:37:38;;;;;;;7.22;6.57;;;;;;;19.82;47.05;100885.56;6092201;23;20031;-73
2023/05/28 07:40:05;;;;;;;7.55;6.97;;;;;;;18.76;47.04;100715.63;6098849;23;20029;-73
2023/05/28 07:42:31;;;;;;;6.78;6.07;;;;;;;20.08;46.69;100949.00;6093723;23;20016;-73
2023/05/28 07:44:58;;;;;;;7.00;6.43;;;;;;;19.83;46.54;100871.28;6122180;23;20026;-72
2023/05/28 07:47:24;;;;;;;6.38;5.97;;;;;;;20.44;45.82;100938.72;6092371;23;20025;-73
2023/05/28 07:49:51;;;;;;;7.80;6.90;;;;;;;20.34;46.40;100944.03;6119073;23;20020;-72
2023/05/28 07:52:17;;;;;;;7.07;6.22;;;;;;;20.37;47.05;100982.91;6113210;23;20099;-72
2023/05/28 07:54:44;;;;;;;7.22;6.63;;;;;;;19.87;46.94;100898.47;6116215;23;20479;-72
2023/05/28 07:57:10;;;;;;;12.80;6.47;;;;;;;20.27;47.41;100980.22;6114287;23;20032;-72
2023/05/28 07:59:37;;;;;;;6.82;6.13;;;;;;;20.76;47.20;101029.16;6117509;23;20111;-71
2023/05/28 08:02:03;;;;;;;7.45;6.40;;;;;;;20.49;47.29;101006.63;6109958;23;20025;-72
2023/05/28 08:04:30;;;;;;;6.80;6.10;;;;;;;20.75;47.97;101083.50;6095966;23;20094;-72
2023/05/28 08:06:56;;;;;;;8.02;6.47;;;;;;;20.81;47.07;101023.44;6121128;23;20021;-72
2023/05/28 08:09:23;;;;;;;6.70;6.20;;;;;;;20.77;46.46;100990.84;6119279;23;20022;-72
2023/05/28 08:11:49;;;;;;;6.80;6.30;;;;;;;20.44;46.92;100939.53;6082671;23;20016;-73
2023/05/28 08:14:16;;;;;;;6.82;6.10;;;;;;;20.08;47.00;100882.41;6120633;23;20033;-73
2023/05/28 08:16:42;;;;;;;6.65;6.05;;;;;;;20.77;46.65;100992.66;6090384;23;20065;-73
2023/05/28 08:19:09;;;;;;;7.45;6.70;;;;;;;20.96;47.15;101035.38;6106284;23;20480;-73
2023/05/28 08:21:36;;;;;;;6.88;6.38;;;;;;;20.65;47.83;101008.81;6110208;23;20013;-73
2023/05/28 08:24:05;;;;;;;7.80;7.07;;;;;;;20.72;47.29;100969.91;6105346;23;20518;-73
2023/05/28 08:26:32;;;;;;;7.40;6.72;;;;;;;21.18;48.06;101092.97;6117983;23;20499;-72
2023/05/28 08:28:58;;;;;;;7.22;6.53;;;;;;;21.40;47.68;101083.00;6124150;23;20088;-72
2023/05/28 08:31:25;;;;;;;6.80;6.00;;;;;;;21.10;45.77;100933.53;6093326;23;20036;-72
2023/05/28 08:33:51;;;;;;;7.10;6.05;;;;;;;21.26;46.15;100999.69;6095951;23;20600;-72
2023/05/28 08:36:18;;;;;;;6.88;6.43;;;;;;;21.11;46.58;101001.94;6125183;23;20405;-72
2023/05/28 08:38:44;;;;;;;8.02;6.20;;;;;;;21.16;46.73;100966.81;6095034;23;20088;-73
2023/05/28 08:41:12;;;;;;;7.22;6.55;;;;;;;21.54;46.45;101010.50;6120668;23;20471;-72
2023/05/28 08:43:38;;;;;;;6.35;5.80;;;;;;;21.04;44.63;100862.06;6120052;23;20024;-72
2023/05/28 08:46:05;;;;;;;7.05;6.15;;;;;;;21.47;43.50;100847.34;6105627;23;20017;-73
2023/05/28 08:48:35;;;;;;;6.35;5.80;;;;;;;21.73;41.91;100848.47;6120318;23;20636;-72
2023/05/28 08:51:02;;;;;;;7.22;6.53;;;;;;;20.98;42.46;100758.56;6100507;23;20100;-72
2023/05/28 08:53:35;;;;;;;7.05;6.50;;;;;;;21.29;42.77;100819.72;6122703;23;20020;-73
2023/05/28 08:56:03;;;;;;;5.75;5.43;;;;;;;21.75;41.21;100793.94;6093929;23;20016;-72
2023/05/28 08:58:29;;;;;;;6.53;6.00;;;;;;;21.68;41.14;100808.84;6125717;23;20025;-73
2023/05/28 09:00:56;;;;;;;7.18;6.43;;;;;;;21.68;42.63;100913.03;6059826;23;20030;-73
2023/05/28 09:03:23;;;;;;;6.82;6.07;;;;;;;21.78;43.15;100918.34;6128796;23;20033;-72
2023/05/28 09:05:50;;;;;;;8.38;6.25;;;;;;;21.67;44.25;100946.94;6119056;23;20078;-71
2023/05/28 09:08:16;;;;;;;7.47;6.88;;;;;;;21.25;43.90;100861.88;6087757;23;20580;-72
2023/05/28 09:10:43;;;;;;;7.10;6.10;;;;;;;21.40;45.88;101014.41;6087474;23;20045;-73
2023/05/28 09:13:09;;;;;;;6.80;6.40;;;;;;;21.63;44.71;100964.22;6093404;23;20782;-73
2023/05/28 09:15:36;;;;;;;6.75;6.20;;;;;;;21.84;43.83;100942.63;6119874;23;20029;-73
2023/05/28 09:18:04;;;;;;;6.57;6.07;;;;;;;21.71;43.14;100900.22;6120444;23;20032;-72
2023/05/28 09:20:31;;;;;;;6.57;6.05;;;;;;;21.91;44.18;100980.31;6124793;23;20052;-73
2023/05/28 09:23:06;;;;;;;6.60;6.00;;;;;;;22.29;44.12;100995.34;6114429;23;20110;-72
2023/05/28 09:25:36;;;;;;;6.47;5.88;;;;;;;21.67;43.20;100871.31;6123879;23;20025;-73
2023/05/28 09:28:03;;;;;;;6.80;6.40;;;;;;;21.86;42.29;100884.53;6116723;23;20397;-73
2023/05/28 09:30:35;;;;;;;6.50;6.00;;;;;;;21.91;43.79;100917.00;6114848;23;20017;-73
2023/05/28 09:33:03;;;;;;;6.28;5.78;;;;;;;21.77;41.82;100837.34;6127058;23;20055;-72
2023/05/28 09:35:30;;;;;;;6.95;6.45;;;;;;;21.63;45.64;100998.09;6121601;23;20379;-72
2023/05/28 09:38:10;;;;;;;6.53;5.93;;;;;;;22.20;44.12;101022.91;6123077;23;20115;-72
2023/05/28 09:40:38;;;;;;;6.93;6.20;;;;;;;22.30;42.30;100908.78;6116410;23;20021;-71
2023/05/28 09:43:06;;;;;;;7.03;6.20;;;;;;;22.27;42.88;100948.34;6099420;23;20067;-74
2023/05/28 09:45:36;;;;;;;6.55;6.10;;;;;;;21.64;42.18;100778.94;6086577;23;20022;-72
2023/05/28 09:48:03;;;;;;;7.07;5.90;;;;;;;22.32;42.30;100921.16;6121626;23;20094;-72
2023/05/28 09:50:30;;;;;;;6.90;6.20;;;;;;;22.37;42.59;100898.34;6119057;23;20039;-70
2023/05/28 09:52:58;;;;;;;6.60;6.05;;;;;;;22.44;41.50;100904.72;6126604;23;20029;-72
2023/05/28 09:55:30;;;;;;;6.85;6.30;;;;;;;22.32;42.28;100905.13;6120539;23;20025;-72
2023/05/28 09:58:03;;;;;;;6.47;5.97;;;;;;;22.42;41.67;100913.91;6106079;23;20428;-72
2023/05/28 10:00:48;;;;;;;6.88;6.28;;;;;;;22.08;40.57;100791.56;6119942;23;20081;-72
2023/05/28 10:03:43;;;;;;;6.38;5.97;;;;;;;22.39;39.53;100802.75;6107431;23;20033;-71
2023/05/28 10:06:13;;;;;;;6.55;6.07;;;;;;;21.92;40.22;100794.91;6128233;23;20052;-72
2023/05/28 10:08:42;;;;;;;6.50;5.93;;;;;;;21.71;39.43;100725.78;6125279;23;20029;-72
2023/05/28 10:11:13;;;;;;;6.65;6.15;;;;;;;22.91;38.70;100882.22;6123077;23;20017;-73
2023/05/28 10:13:39;;;;;;;6.47;5.97;;;;;;;23.07;37.67;100842.22;6125795;23;20033;-72
2023/05/28 10:16:07;;;;;;;6.22;5.82;;;;;;;22.69;34.75;100635.59;6121424;23;20021;-72
2023/05/28 10:18:35;;;;;;;6.32;5.82;;;;;;;22.79;39.37;100915.56;6098696;23;20401;-71
2023/05/28 10:21:04;;;;;;;6.60;6.10;;;;;;;23.22;40.40;101007.66;6118517;23;20100;-72
2023/05/28 10:23:31;;;;;;;8.20;6.22;;;;;;;23.17;39.75;100948.34;6078659;23;20074;-72
2023/05/28 10:25:58;;;;;;;7.03;6.18;;;;;;;23.19;39.47;100947.19;6109324;23;20025;-73
2023/05/28 10:28:26;;;;;;;8.07;6.25;;;;;;;22.87;40.44;100918.31;6092590;23;20093;-73
2023/05/28 10:31:02;;;;;;;7.13;6.50;;;;;;;23.37;37.88;100896.25;6122509;23;20083;-73
2023/05/28 10:33:28;;;;;;;6.63;6.03;;;;;;;23.04;36.61;100743.50;6134921;23;20025;-72
2023/05/28 10:35:58;;;;;;;7.13;6.30;;;;;;;23.07;38.24;100836.00;6123556;23;20029;-73
2023/05/28 10:38:25;;;;;;;7.03;6.32;;;;;;;22.70;37.44;100771.03;6127278;23;20021;-73
2023/05/28 10:41:01;;;;;;;6.90;6.28;;;;;;;22.99;35.93;100715.50;6093906;23;20413;-73
2023/05/28 10:43:47;;;;;;;6.43;6.03;;;;;;;22.14;38.97;100717.97;6092654;23;20538;-73
2023/05/28 10:46:20;;;;;;;6.70;6.00;;;;;;;23.43;40.06;100997.44;6094680;23;20171;-71
2023/05/28 10:49:15;;;;;;;6.70;6.20;;;;;;;23.38;40.87;101026.50;6124488;23;20013;-71
2023/05/28 10:52:01;;;;;;;8.18;6.40;;;;;;;23.84;38.89;100976.25;6121334;23;20061;-72
2023/05/28 10:54:37;;;;;;;6.80;6.20;;;;;;;23.79;37.67;100926.81;6089667;23;20090;-72
2023/05/28 10:57:23;;;;;;;6.82;6.18;;;;;;;23.37;37.78;100813.25;6124663;23;20041;-71
2023/05/28 10:59:58;;;;;;;6.53;6.10;;;;;;;23.19;37.28;100813.31;6088999;23;20124;-72
2023/05/28 11:02:27;;;;;;;6.53;6.03;;;;;;;23.79;36.64;100890.13;6129664;23;20094;-71
2023/05/28 11:05:01;;;;;;;6.85;6.35;;;;;;;23.40;36.28;100756.69;6103970;23;20029;-71
2023/05/28 11:07:33;;;;;;;6.75;6.18;;;;;;;23.61;39.26;100980.44;6121297;23;20041;-71
2023/05/28 11:10:01;;;;;;;6.47;6.07;;;;;;;23.63;36.44;100839.13;6104282;23;20033;-72
2023/05/28 11:12:29;;;;;;;6.93;6.32;;;;;;;23.41;36.10;100768.22;6120504;23;20021;-72
2023/05/28 11:14:56;;;;;;;9.05;6.20;;;;;;;24.05;37.12;100935.63;6100957;23;20105;-73
2023/05/28 11:17:22;;;;;;;6.43;6.03;;;;;;;23.82;35.66;100820.13;6128826;23;20036;-72
2023/05/28 11:19:51;;;;;;;6.93;6.43;;;;;;;23.84;36.19;100831.53;6126417;23;20066;-71
2023/05/28 11:22:19;;;;;;;6.47;6.07;;;;;;;23.52;34.00;100711.69;6127088;23;20092;-72
2023/05/28 11:25:04;;;;;;;6.50;6.10;;;;;;;23.52;36.37;100855.50;6107172;23;20459;-73
2023/05/28 11:27:33;;;;;;;7.55;6.28;;;;;;;23.53;38.21;100929.50;6122639;23;20599;-72